• Join FlightAware (Why Join?)
  • Login
  • US Flag 
11:11AM EDT


 

Airport Tracker/Info


-or-


 

Live Flight TrackerFlight Track Log ✈ JBU1475 ✈ 01-Jul-2013 ✈ KBOS - KOAK

Flight Track Log - Related Links

Times and Time Zones

All times are in EDT time to prevent confusion due to time zone crossing. See the JBU1475 flight status page for this flight to view local times or setup timezone preferences in your user account.

Time Position Orientation Groundspeed Altitude Reporting Facility
EDT Latitude Longitude Course Direction KTS MPH feet Rate Location/Type
09:00PM 42.3430 -71.0200 182° South 152 175 1,300  Level FlightAware
09:00PM 42.3250 -71.0010 142° Southeast 211 243 1,700 1,260 Climbing FlightAware
09:01PM 42.3110 -70.9110 102° East 292 336 3,300 1,800 Climbing FlightAware
09:01PM 42.3150 -70.8910 75° East 292 336 3,900 3,240 Climbing FlightAware
09:02PM 42.3260 -70.8330 76° East 287 330 5,600 3,060 Climbing FlightAware
09:02PM 42.3340 -70.7970 73° East 291 335 6,600 2,760 Climbing FlightAware
09:02PM 42.3380 -70.7790 73° East 296 341 7,000 2,160 Climbing FlightAware
09:03PM 42.3510 -70.7550 54° Northeast 302 348 7,500 2,280 Climbing FlightAware
09:03PM 42.3690 -70.7400 32° Northeast 305 351 8,200 2,520 Climbing FlightAware
09:03PM 42.4080 -70.7250 16° North 300 345 9,400 1,860 Climbing FlightAware
09:04PM 42.4680 -70.7170 North 324 373 10,400 1,260 Climbing FlightAware
09:05PM 42.5150 -70.7510 332° Northwest 351 404 11,000 1,200 Climbing FlightAware
09:05PM 42.5450 -70.7900 316° Northwest 349 402 11,600 1,920 Climbing FlightAware
09:06PM 42.5820 -70.8620 305° West 346 398 13,100 2,160 Climbing FlightAware
09:06PM 42.5960 -70.9010 296° West 345 397 13,800 1,260 Climbing FlightAware
09:07PM 42.6070 -70.9770 281° West 363 418 14,300 1,260 Climbing FlightAware
09:07PM 42.6180 -71.0690 279° West 372 428 15,400 1,680 Climbing FlightAware
09:08PM 42.6300 -71.1620 280° West 378 435 16,600 1,680 Climbing FlightAware
09:09PM 42.6430 -71.2670 280° West 383 441 17,800 1,380 Climbing FlightAware
09:09PM 42.6560 -71.3730 280° West 393 452 18,600 1,260 Climbing FlightAware
09:10PM 42.6700 -71.4760 281° West 399 459 19,600 1,440 Climbing FlightAware
09:11PM 42.6820 -71.5750 279° West 400 460 20,600 1,380 Climbing FlightAware
09:11PM 42.6930 -71.6650 279° West 402 463 21,400 1,200 Climbing FlightAware
09:12PM 42.7070 -71.7770 280° West 406 467 22,200 1,080 Climbing FlightAware
09:13PM 42.7190 -71.8800 279° West 408 470 23,000 1,020 Climbing FlightAware
09:13PM 42.7320 -71.9810 280° West 414 476 23,600 1,200 Climbing FlightAware
09:14PM 42.7460 -72.0970 279° West 407 468 24,700 1,500 Climbing FlightAware
09:15PM 42.7580 -72.2000 279° West 399 459 25,800 1,200 Climbing FlightAware
09:16PM 42.7700 -72.2980 280° West 402 463 26,400 780 Climbing FlightAware
09:16PM 42.7810 -72.3980 279° West 409 471 26,900 600 Climbing FlightAware
09:17PM 42.7930 -72.5010 279° West 415 478 27,200 720 Climbing FlightAware
09:18PM 42.8050 -72.6050 279° West 414 476 27,900 720 Climbing FlightAware
09:18PM 42.8170 -72.7080 279° West 421 484 28,200 600 Climbing FlightAware
09:19PM 42.8280 -72.8020 279° West 422 486 28,700 480 Climbing FlightAware
09:20PM 42.8410 -72.9190 279° West 432 497 28,900 300 Climbing FlightAware
09:20PM 42.8520 -73.0260 278° West 436 502 29,200 180 Climbing FlightAware
09:21PM 42.8610 -73.1190 278° West 436 502 29,200 720 Level FlightAware
09:22PM 42.8740 -73.2480 278° West 437 503 30,200 1,200 Climbing FlightAware
09:22PM 42.8840 -73.3570 277° West 31,000 1,080 Climbing FlightAware
09:23PM 42.8960 -73.4770 278° West 422 486 31,800 780 Climbing FlightAware
09:24PM 42.9030 -73.5550 277° West 423 487 32,000 120 Climbing FlightAware
09:24PM 42.9140 -73.6700 277° West 416 479 32,000  Level FlightAware
09:25PM 42.9250 -73.7930 277° West 422 486 32,000  Level FlightAware
09:26PM 42.9320 -73.8730 277° West 421 484 32,000  Level FlightAware
09:26PM 42.9420 -73.9770 278° West 418 481 32,000  Level FlightAware
09:27PM 42.9530 -74.1080 277° West 417 480 32,000  Level FlightAware
09:28PM 42.9620 -74.2070 277° West 416 479 32,000  Level FlightAware
09:28PM 42.9720 -74.3220 277° West 413 475 32,000  Level FlightAware
09:29PM 42.9820 -74.4320 277° West 411 473 32,000  Level FlightAware
09:30PM 42.9910 -74.5430 276° West 411 473 32,000  Level FlightAware
09:30PM 42.9980 -74.6260 277° West 411 473 32,000  Level FlightAware
09:31PM 43.0080 -74.7400 277° West 414 476 32,000  Level FlightAware
09:32PM 43.0170 -74.8480 277° West 415 478 32,000  Level FlightAware
09:32PM 43.0250 -74.9430 277° West 414 476 32,000 60 Level FlightAware
09:33PM 43.0330 -75.0460 276° West 412 474 32,100  Climbing FlightAware
09:34PM 43.0420 -75.1560 276° West 411 473 32,000 -120 Descending FlightAware
09:34PM 43.0500 -75.2610 276° West 410 472 32,000  Level FlightAware
09:35PM 43.0590 -75.3760 276° West 408 470 32,000  Level FlightAware
09:36PM 43.0670 -75.4830 276° West 409 471 32,000  Level FlightAware
09:37PM 43.0750 -75.5860 276° West 411 473 32,000  Level FlightAware
09:37PM 43.0820 -75.6780 276° West 411 473 32,000  Level FlightAware
09:38PM 43.0900 -75.7910 276° West 411 473 32,000  Level FlightAware
09:39PM 43.0980 -75.8950 276° West 412 474 32,000  Level FlightAware
09:39PM 43.1060 -76.0050 276° West 413 475 32,000  Level FlightAware
09:40PM 43.1140 -76.1170 276° West 412 474 32,000  Level FlightAware
09:41PM 43.1210 -76.2220 275° West 413 475 32,000  Level FlightAware
09:41PM 43.1290 -76.3330 276° West 411 473 32,000  Level FlightAware
09:42PM 43.1360 -76.4370 275° West 410 472 32,000  Level FlightAware
09:43PM 43.1440 -76.5480 276° West 411 473 32,000  Level FlightAware
09:43PM 43.1510 -76.6580 275° West 413 475 32,000  Level FlightAware
09:44PM 43.1580 -76.7650 275° West 413 475 32,000  Level FlightAware
09:45PM 43.1660 -76.8810 275° West 413 475 32,000  Level FlightAware
09:46PM 43.1720 -76.9790 275° West 412 474 32,000  Level FlightAware
09:46PM 43.1780 -77.0800 275° West 413 475 32,000  Level FlightAware
09:47PM 43.1850 -77.1890 275° West 416 479 32,000  Level FlightAware
09:48PM 43.1910 -77.2950 274° West 416 479 32,000  Level FlightAware
09:48PM 43.1970 -77.3980 275° West 416 479 32,000  Level FlightAware
09:49PM 43.2040 -77.5160 275° West 417 480 32,000  Level FlightAware
09:50PM 43.2110 -77.6220 275° West 417 480 32,000  Level FlightAware
09:50PM 43.2170 -77.7310 274° West 417 480 32,000  Level FlightAware
09:51PM 43.2240 -77.8480 275° West 418 481 32,000  Level FlightAware
09:52PM 43.2280 -77.9330 274° West 418 481 32,000  Level FlightAware
09:52PM 43.2340 -78.0430 274° West 419 482 32,000  Level FlightAware
09:53PM 43.2410 -78.1650 275° West 418 481 32,000  Level FlightAware
09:54PM 43.2450 -78.2510 274° West 416 479 32,000  Level FlightAware
09:54PM 43.2510 -78.3650 274° West 414 476 32,000  Level FlightAware
09:55PM 43.2560 -78.4570 274° West 414 476 32,000  Level FlightAware
09:56PM 43.2620 -78.5770 274° West 416 479 32,000  Level FlightAware
09:56PM 43.2670 -78.6830 274° West 418 481 32,000  Level FlightAware
09:57PM 43.2730 -78.8030 274° West 419 482 32,000  Level FlightAware
09:58PM 43.2780 -78.9200 273° West 420 483 32,000  Level FlightAware
09:58PM 43.2820 -79.0010 274° West 421 484 32,000  Level FlightAware
09:59PM 43.2870 -79.1090 274° West 422 486 32,000  Level FlightAware
10:00PM 43.2920 -79.2270 273° West 422 486 32,000  Level FlightAware
10:00PM 43.2960 -79.3230 273° West 423 487 32,000  Level FlightAware
10:01PM 43.3000 -79.4260 273° West 425 489 32,000  Level FlightAware
10:02PM 43.3050 -79.5520 273° West 428 493 32,000  Level FlightAware
10:02PM 43.3100 -79.6600 274° West 429 494 32,000  Level FlightAware
10:03PM 43.3140 -79.7790 273° West 429 494 32,000  Level FlightAware
10:04PM 43.3190 -79.8900 274° West 428 493 32,000  Level FlightAware
10:05PM 43.3230 -79.9990 273° West 428 493 32,000  Level FlightAware
10:05PM 43.3270 -80.1180 273° West 427 491 32,000  Level FlightAware
10:06PM 43.3310 -80.2280 273° West 428 493 32,000  Level FlightAware
10:07PM 43.3350 -80.3490 273° West 432 497 32,000  Level FlightAware
10:07PM 43.3390 -80.4610 273° West 435 501 32,000  Level FlightAware
10:08PM 43.3420 -80.5690 272° West 437 503 32,000  Level FlightAware
10:09PM 43.3460 -80.6950 273° West 438 504 32,000  Level FlightAware
10:09PM 43.3500 -80.8170 273° West 440 506 32,000  Level FlightAware
10:10PM 43.3530 -80.9280 272° West 440 506 32,000  Level FlightAware
10:11PM 43.3560 -81.0470 272° West 441 507 32,000  Level FlightAware
10:11PM 43.3590 -81.1480 272° West 441 507 32,000  Level FlightAware
10:12PM 43.3630 -81.2920 272° West 440 506 32,000  Level FlightAware
10:13PM 43.3660 -81.3990 272° West 440 506 32,000 60 Level FlightAware
10:14PM 43.3680 -81.5200 271° West 435 501 32,100  Climbing FlightAware
10:14PM 43.3710 -81.6370 272° West 431 496 32,000 -120 Descending FlightAware
10:15PM 43.3740 -81.7490 272° West 428 493 32,000  Level FlightAware
10:16PM 43.3760 -81.8590 271° West 426 490 32,000  Level FlightAware
10:16PM 43.3780 -81.9780 271° West 427 491 32,000  Level FlightAware
10:17PM 43.3800 -82.0690 272° West 429 494 32,000  Level FlightAware
10:18PM 43.3820 -82.1720 272° West 432 497 32,000  Level FlightAware
10:19PM 43.3840 -82.3080 271° West 434 499 32,000 60 Level FlightAware
10:19PM 43.3860 -82.4280 271° West 434 499 32,100 60 Climbing FlightAware
10:20PM 43.3880 -82.5430 271° West 432 497 32,100 -120 Level FlightAware
10:21PM 43.3890 -82.6590 271° West 430 495 32,000 -120 Descending FlightAware
10:21PM 43.3900 -82.7590 271° West 431 496 32,000  Level FlightAware
10:22PM 43.3920 -82.8490 272° West 433 498 32,000  Level FlightAware
10:23PM 43.3930 -82.9770 271° West 433 498 32,000  Level FlightAware
10:23PM 43.3940 -83.1030 271° West 434 499 32,000  Level FlightAware
10:24PM 43.3950 -83.2280 271° West 435 501 32,000  Level FlightAware
10:25PM 43.3960 -83.3360 271° West 436 502 32,000  Level FlightAware
10:26PM 43.3970 -83.4570 271° West 435 501 32,000  Level FlightAware
10:26PM 43.3980 -83.6000 271° West 435 501 32,000  Level FlightAware
10:27PM 43.3980 -83.7190 270° West 433 498 32,000  Level FlightAware
10:28PM 43.3990 -83.8380 271° West 431 496 32,000  Level FlightAware
10:28PM 43.3990 -83.9300 270° West 431 496 32,000  Level FlightAware
10:29PM 43.3990 -84.0510 270° West 432 497 32,000  Level FlightAware
10:30PM 43.3990 -84.1480 270° West 433 498 32,000 420 Level FlightAware
10:30PM 43.3990 -84.2620 270° West 435 501 32,600 900 Climbing FlightAware
10:31PM 43.3990 -84.3560 270° West 432 497 33,200 1,020 Climbing FlightAware
10:32PM 43.3990 -84.4860 270° West 428 493 34,000 480 Climbing FlightAware
10:32PM 43.3990 -84.6030 270° West 426 490 34,000  Level FlightAware
10:33PM 43.3980 -84.7240 269° West 430 495 34,000  Level FlightAware
10:34PM 43.3970 -84.8330 269° West 433 498 34,000  Level FlightAware
10:35PM 43.3970 -84.9430 270° West 436 502 34,000  Level FlightAware
10:35PM 43.3960 -85.0540 269° West 438 504 34,000  Level FlightAware
10:36PM 43.3950 -85.1700 269° West 439 505 34,000  Level FlightAware
10:37PM 43.3940 -85.2820 269° West 438 504 34,000  Level FlightAware
10:37PM 43.3930 -85.3880 269° West 437 503 34,000  Level FlightAware
10:38PM 43.3920 -85.4930 269° West 437 503 34,000  Level FlightAware
10:39PM 43.3900 -85.6140 269° West 436 502 34,000  Level FlightAware
10:39PM 43.3890 -85.7250 269° West 435 501 34,000  Level FlightAware
10:40PM 43.3870 -85.8460 269° West 433 498 34,000  Level FlightAware
10:41PM 43.3850 -85.9560 269° West 430 495 34,000  Level FlightAware
10:41PM 43.3840 -86.0670 269° West 428 493 34,000  Level FlightAware
10:42PM 43.3820 -86.1830 269° West 426 490 34,000  Level FlightAware
10:43PM 43.3800 -86.2800 268° West 426 490 34,000  Level FlightAware
10:43PM 43.3780 -86.3880 269° West 426 490 34,000  Level FlightAware
10:44PM 43.3750 -86.5070 268° West 426 490 34,000  Level FlightAware
10:45PM 43.3730 -86.6050 268° West 426 490 34,000  Level FlightAware
10:45PM 43.3710 -86.7150 269° West 435 501 34,000  Level FlightAware
10:46PM 43.3680 -86.8270 268° West 434 499 34,000  Level FlightAware
10:47PM 43.3660 -86.9480 269° West 436 502 34,000  Level FlightAware
10:47PM 43.3630 -87.0620 268° West 436 502 34,000  Level FlightAware
10:48PM 43.3600 -87.1730 268° West 435 501 34,000  Level FlightAware
10:49PM 43.3570 -87.2910 268° West 434 499 34,000  Level FlightAware
10:49PM 43.3540 -87.3880 268° West 434 499 34,000  Level FlightAware
10:50PM 43.3510 -87.4990 268° West 434 499 34,000  Level FlightAware
10:51PM 43.3480 -87.6200 268° West 433 498 34,000  Level FlightAware
10:51PM 43.3440 -87.7350 267° West 431 496 34,000  Level FlightAware
10:52PM 43.3400 -87.8530 267° West 431 496 34,000  Level FlightAware
10:53PM 43.3370 -87.9640 268° West 432 497 34,000  Level FlightAware
10:54PM 43.3330 -88.0730 267° West 432 497 34,000  Level FlightAware
10:54PM 43.3290 -88.1960 267° West 432 497 34,000  Level FlightAware
10:55PM 43.3250 -88.3000 267° West 432 497 34,000  Level FlightAware
10:56PM 43.3210 -88.4250 268° West 435 501 34,000  Level FlightAware
10:56PM 43.3170 -88.5320 267° West 437 503 34,000  Level FlightAware
10:57PM 43.3120 -88.6540 267° West 438 504 34,000  Level FlightAware
10:58PM 43.3070 -88.7690 267° West 436 502 34,000  Level FlightAware
10:59PM 43.3020 -88.8910 267° West 435 501 34,000  Level FlightAware
10:59PM 43.2980 -89.0000 267° West 435 501 34,000  Level FlightAware
11:00PM 43.2930 -89.1170 267° West 437 503 34,000  Level FlightAware
11:01PM 43.2880 -89.2280 266° West 440 506 34,000  Level FlightAware
11:01PM 43.2820 -89.3560 266° West 440 506 34,000  Level FlightAware
11:02PM 43.2780 -89.4570 267° West 440 506 34,000  Level FlightAware
11:03PM 43.2710 -89.5890 266° West 439 505 34,000  Level FlightAware
11:03PM 43.2660 -89.6990 266° West 440 506 34,000  Level FlightAware
11:04PM 43.2600 -89.8240 266° West 440 506 34,000  Level FlightAware
11:05PM 43.2550 -89.9330 266° West 441 507 34,000  Level FlightAware
11:05PM 43.2490 -90.0340 265° West 442 509 34,000  Level FlightAware
11:06PM 43.2440 -90.1440 266° West 442 509 34,000  Level FlightAware
11:07PM 43.2370 -90.2730 266° West 442 509 34,000  Level FlightAware
11:07PM 43.2320 -90.3720 266° West 442 509 34,000  Level FlightAware
11:08PM 43.2250 -90.5000 266° West 441 507 34,000  Level FlightAware
11:09PM 43.2170 -90.6260 265° West 439 505 34,000  Level FlightAware
11:10PM 43.2110 -90.7350 266° West 439 505 34,000  Level FlightAware
11:10PM 43.2050 -90.8380 265° West 438 504 34,000  Level FlightAware
11:11PM 43.1970 -90.9730 265° West 438 504 34,000  Level FlightAware
11:12PM 43.1900 -91.0900 265° West 438 504 34,000  Level FlightAware
11:12PM 43.1840 -91.1980 266° West 438 504 34,000  Level FlightAware
11:13PM 43.1760 -91.3160 265° West 438 504 34,000  Level FlightAware
11:14PM 43.1690 -91.4310 265° West 439 505 34,000  Level FlightAware
11:14PM 43.1620 -91.5420 265° West 438 504 34,000 60 Level FlightAware
11:15PM 43.1540 -91.6630 265° West 433 498 34,100  Climbing FlightAware
11:16PM 43.1470 -91.7770 265° West 428 493 34,000 -120 Descending FlightAware
11:17PM 43.1390 -91.8950 265° West 424 488 34,000  Level FlightAware
11:17PM 43.1310 -92.0010 264° West 423 487 34,000  Level FlightAware
11:18PM 43.1240 -92.1090 265° West 425 489 34,000  Level FlightAware
11:19PM 43.1150 -92.2300 264° West 429 494 34,000  Level FlightAware
11:19PM 43.1070 -92.3510 265° West 439 505 34,000  Level FlightAware
11:20PM 43.0990 -92.4570 264° West 442 509 34,000  Level FlightAware
11:21PM 43.0900 -92.5780 264° West 443 510 34,000  Level FlightAware
11:21PM 43.0830 -92.6740 264° West 446 513 34,000  Level FlightAware
11:22PM 43.0740 -92.7970 264° West 450 518 34,000  Level FlightAware
11:23PM 43.0650 -92.9150 264° West 453 521 34,000  Level FlightAware
11:23PM 43.0570 -93.0160 264° West 456 525 34,000  Level FlightAware
11:24PM 43.0490 -93.1190 264° West 458 527 34,000  Level FlightAware
11:25PM 43.0390 -93.2510 264° West 458 527 34,000  Level FlightAware
11:25PM 43.0280 -93.3800 263° West 460 529 34,000  Level FlightAware
11:26PM 43.0190 -93.4960 264° West 462 532 34,000  Level FlightAware
11:27PM 43.0080 -93.6180 263° West 465 535 34,000  Level FlightAware
11:27PM 43.0000 -93.7260 264° West 469 540 34,000  Level FlightAware
11:28PM 42.9890 -93.8550 263° West 471 542 34,000  Level FlightAware
11:29PM 42.9790 -93.9680 263° West 471 542 34,000  Level FlightAware
11:30PM 42.9680 -94.0960 263° West 471 542 34,000  Level FlightAware
11:30PM 42.9580 -94.2010 263° West 471 542 34,000  Level FlightAware
11:31PM 42.9450 -94.3500 263° West 472 543 34,000  Level FlightAware
11:32PM 42.9312 -94.5055 263° West 473 544 34,000  Level FlightAware ADS-B
11:32PM 42.9230 -94.5955 263° West 475 547 34,000  Level FlightAware ADS-B
11:33PM 42.9147 -94.6852 263° West 476 548 34,000  Level FlightAware ADS-B
11:33PM 42.9063 -94.7750 263° West 477 549 34,000  Level FlightAware ADS-B
11:34PM 42.8977 -94.8660 263° West 478 550 34,000  Level FlightAware ADS-B
11:34PM 42.8893 -94.9558 263° West 477 549 34,000  Level FlightAware ADS-B
11:35PM 42.8807 -95.0462 263° West 477 549 34,000  Level FlightAware ADS-B
11:35PM 42.8720 -95.1358 262° West 475 547 34,000  Level FlightAware ADS-B
11:36PM 42.8633 -95.2251 262° West 475 547 34,000  Level FlightAware ADS-B
11:36PM 42.8546 -95.3137 262° West 475 547 34,000  Level FlightAware ADS-B
11:37PM 42.8457 -95.4038 262° West 474 545 34,000  Level FlightAware ADS-B
11:37PM 42.8369 -95.4926 262° West 474 545 34,000  Level FlightAware ADS-B
11:38PM 42.8280 -95.5814 262° West 474 545 34,000  Level FlightAware ADS-B
11:38PM 42.8186 -95.6739 262° West 474 545 34,000  Level FlightAware ADS-B
11:39PM 42.8093 -95.7649 262° West 473 544 34,000  Level FlightAware ADS-B
11:39PM 42.8000 -95.8552 262° West 473 544 34,000  Level FlightAware ADS-B
11:40PM 42.7908 -95.9438 262° West 474 545 34,000  Level FlightAware ADS-B
11:40PM 42.7815 -96.0324 262° West 474 545 34,000  Level FlightAware ADS-B
11:41PM 42.7721 -96.1208 262° West 474 545 34,000  Level FlightAware ADS-B
11:41PM 42.7628 -96.2090 262° West 474 545 34,000  Level FlightAware ADS-B
11:42PM 42.7533 -96.2981 262° West 473 544 34,000  Level FlightAware ADS-B
11:43PM 42.7431 -96.3923 262° West 473 544 34,000  Level FlightAware ADS-B
11:43PM 42.7335 -96.4811 262° West 472 543 34,000  Level FlightAware ADS-B
11:44PM 42.7238 -96.5687 261° West 471 542 34,000  Level FlightAware ADS-B
11:44PM 42.7119 -96.6764 261° West 469 540 34,000  Level FlightAware ADS-B
11:45PM 42.7022 -96.7641 261° West 469 540 34,000  Level FlightAware ADS-B
11:45PM 42.6924 -96.8524 261° West 468 539 34,000  Level FlightAware ADS-B
11:46PM 42.6821 -96.9436 261° West 468 539 34,000  Level FlightAware ADS-B
11:46PM 42.6716 -97.0357 261° West 469 540 34,000  Level FlightAware ADS-B
11:47PM 42.6615 -97.1231 261° West 471 542 34,000  Level FlightAware ADS-B
11:47PM 42.6509 -97.2147 261° West 471 542 34,000  Level FlightAware ADS-B
11:48PM 42.6408 -97.3020 261° West 470 541 34,000  Level FlightAware ADS-B
11:48PM 42.6304 -97.3911 261° West 470 541 34,000  Level FlightAware ADS-B
11:49PM 42.6196 -97.4830 261° West 469 540 34,000  Level FlightAware ADS-B
11:50PM 42.6040 -97.6149 261° West 471 542 34,000  Level FlightAware ADS-B
11:50PM 42.5935 -97.7024 261° West 472 543 34,000  Level FlightAware ADS-B
11:51PM 42.5829 -97.7905 261° West 472 543 34,000  Level FlightAware ADS-B
11:51PM 42.5720 -97.8799 261° West 472 543 34,000 60 Level FlightAware ADS-B
11:52PM 42.5603 -97.9751 261° West 470 541 34,100  Climbing FlightAware ADS-B
11:53PM 42.5299 -98.2152 260° West 470 541 34,000 -60 Descending FlightAware ADS-B
11:53PM 42.5178 -98.3037 260° West 470 541 34,000  Level FlightAware ADS-B
11:54PM 42.5058 -98.3915 260° West 471 542 34,000  Level FlightAware ADS-B
11:54PM 42.4937 -98.4803 260° West 472 543 34,000  Level FlightAware ADS-B
11:55PM 42.4817 -98.5680 260° West 472 543 34,000  Level FlightAware ADS-B
11:56PM 42.4692 -98.6585 259° West 473 544 34,000  Level FlightAware ADS-B
11:56PM 42.4570 -98.7459 259° West 473 544 34,000  Level FlightAware ADS-B
11:57PM 42.4380 -98.8822 259° West 471 542 34,000  Level FlightAware ADS-B
11:58PM 42.4025 -99.1328 259° West 470 541 34,000  Level FlightAware ADS-B
11:59PM 42.3866 -99.2434 259° West 470 541 34,000  Level FlightAware ADS-B
11:59PM 42.3741 -99.3297 259° West 470 541 34,000  Level FlightAware ADS-B
12:00AM 42.3616 -99.4160 259° West 469 540 34,000  Level FlightAware ADS-B
12:00AM 42.3489 -99.5032 259° West 469 540 34,000  Level FlightAware ADS-B
12:01AM 42.3361 -99.5899 259° West 470 541 34,000  Level FlightAware ADS-B
12:01AM 42.3234 -99.6763 259° West 470 541 34,000  Level FlightAware ADS-B
12:02AM 42.3094 -99.7702 259° West 469 540 34,000  Level FlightAware ADS-B
12:03AM 42.2928 -99.8806 259° West 466 536 34,000  Level Denver Center
12:04AM 42.2636 -100.0728 258° West 468 539 34,000  Level Denver Center
12:05AM 42.2386 -100.2367 258° West 467 537 34,000  Level Denver Center
12:06AM 42.2142 -100.3992 259° West 465 535 34,000  Level Denver Center
12:07AM 42.1842 -100.5875 258° West 462 532 34,000  Level Denver Center
12:08AM 42.1586 -100.7492 258° West 463 533 34,000  Level Denver Center
12:09AM 42.1297 -100.9386 258° West 463 533 34,000  Level Denver Center
12:15AM 41.9616 -101.9540 258° West 472 543 34,000  Level FlightAware ADS-B
12:15AM 41.9468 -102.0410 257° West 473 544 34,000  Level FlightAware ADS-B
12:16AM 41.9320 -102.1280 257° West 473 544 34,000  Level FlightAware ADS-B
12:16AM 41.9165 -102.2180 257° West 474 545 34,000  Level FlightAware ADS-B
12:17AM 41.9016 -102.3040 257° West 474 545 34,000  Level FlightAware ADS-B
12:17AM 41.8863 -102.3930 257° West 474 545 34,000  Level FlightAware ADS-B
12:18AM 41.8709 -102.4810 257° West 474 545 34,000  Level FlightAware ADS-B
12:18AM 41.8557 -102.5680 257° West 475 547 34,000  Level FlightAware ADS-B
12:19AM 41.8404 -102.6550 257° West 476 548 34,000  Level FlightAware ADS-B
12:19AM 41.8250 -102.7430 257° West 478 550 34,000  Level FlightAware ADS-B
12:20AM 41.8094 -102.8300 257° West 479 551 34,000  Level FlightAware ADS-B
12:20AM 41.7934 -102.9200 257° West 479 551 34,000 60 Level FlightAware ADS-B
12:21AM 41.7773 -103.0090 256° West 476 548 34,100  Climbing FlightAware ADS-B
12:21AM 41.7616 -103.0960 256° West 474 545 34,000 -120 Descending FlightAware ADS-B
12:22AM 41.7461 -103.1810 256° West 473 544 34,000  Level FlightAware ADS-B
12:22AM 41.7306 -103.2670 256° West 473 544 34,000  Level FlightAware ADS-B
12:23AM 41.7150 -103.3520 256° West 473 544 34,000  Level FlightAware ADS-B
12:23AM 41.6987 -103.4410 256° West 473 544 34,000  Level FlightAware ADS-B
12:24AM 41.6827 -103.5280 256° West 472 543 34,000  Level FlightAware ADS-B
12:24AM 41.6667 -103.6140 256° West 472 543 34,000  Level FlightAware ADS-B
12:25AM 41.6507 -103.7000 256° West 472 543 34,000  Level FlightAware ADS-B
12:25AM 41.6348 -103.7850 256° West 472 543 34,000  Level FlightAware ADS-B
12:26AM 41.6188 -103.8700 256° West 472 543 34,000  Level FlightAware ADS-B
12:26AM 41.6027 -103.9560 256° West 472 543 34,000  Level FlightAware ADS-B
12:27AM 41.5866 -104.0410 256° West 472 543 34,000  Level FlightAware ADS-B
12:28AM 41.5698 -104.1280 256° West 473 544 34,000  Level FlightAware ADS-B
12:28AM 41.5534 -104.2140 256° West 474 545 34,000  Level FlightAware ADS-B
12:29AM 41.5348 -104.3110 256° West 474 545 34,000  Level FlightAware ADS-B
12:29AM 41.5179 -104.3990 256° West 473 544 34,000  Level FlightAware ADS-B
12:30AM 41.5014 -104.4840 255° West 472 543 34,000  Level FlightAware ADS-B
12:30AM 41.4846 -104.5700 255° West 470 541 34,000  Level FlightAware ADS-B
12:31AM 41.4680 -104.6550 255° West 468 539 34,000  Level FlightAware ADS-B
12:31AM 41.4515 -104.7390 255° West 468 539 34,000  Level FlightAware ADS-B
12:32AM 41.4333 -104.8310 255° West 468 539 34,000  Level FlightAware ADS-B
12:32AM 41.4165 -104.9160 255° West 467 537 34,000  Level FlightAware ADS-B
12:33AM 41.3996 -105.0010 255° West 468 539 34,000  Level FlightAware ADS-B
12:33AM 41.3824 -105.0870 255° West 468 539 34,000  Level FlightAware ADS-B
12:34AM 41.3642 -105.1780 255° West 468 539 34,000  Level FlightAware ADS-B
12:34AM 41.3470 -105.2630 255° West 467 537 34,000  Level FlightAware ADS-B
12:35AM 41.3080 -105.4540 255° West 465 535 34,000  Level FlightAware
12:36AM 41.2895 -105.5460 255° West 467 537 34,000  Level FlightAware ADS-B
12:37AM 41.2595 -105.6920 255° West 467 537 34,000  Level FlightAware ADS-B
12:38AM 41.2360 -105.8060 255° West 469 540 34,000  Level FlightAware ADS-B
12:38AM 41.2130 -105.9170 255° West 471 542 34,000  Level FlightAware
12:39AM 41.1920 -106.0150 254° West 470 541 34,000  Level FlightAware
12:40AM 41.1630 -106.1540 255° West 471 542 34,000  Level FlightAware
12:40AM 41.1420 -106.2530 254° West 472 543 34,000  Level FlightAware
12:41AM 41.1190 -106.3590 254° West 471 542 34,000  Level FlightAware
12:42AM 41.0950 -106.4720 254° West 471 542 34,000  Level FlightAware
12:42AM 41.0760 -106.5570 254° West 471 542 34,000  Level FlightAware
12:43AM 41.0580 -106.6420 254° West 471 542 34,000  Level FlightAware
12:44AM 41.0340 -106.7560 254° West 471 542 34,000  Level FlightAware
12:44AM 41.0150 -106.8410 254° West 471 542 34,000  Level FlightAware
12:45AM 40.9910 -106.9540 254° West 471 542 34,000  Level FlightAware
12:46AM 40.9720 -107.0390 254° West 471 542 34,000  Level FlightAware
12:47AM 40.9470 -107.1540 254° West 471 542 34,000  Level FlightAware
12:47AM 40.9290 -107.2390 254° West 471 542 34,000  Level FlightAware
12:48AM 40.9110 -107.3220 254° West 471 542 34,000  Level FlightAware
12:48AM 40.8920 -107.4110 254° West 471 542 34,000  Level FlightAware
12:49AM 40.8140 -107.7480 253° West 464 534 34,000  Level FlightAware
12:50AM 40.7880 -107.8590 253° West 464 534 34,000  Level FlightAware
12:51AM 40.8170 -107.7340 73° East 34,000  Level FlightAware
12:51AM 40.7480 -108.0360 253° West 474 545 34,000  Level FlightAware
12:52AM 40.7260 -108.1350 254° West 474 545 34,000 60 Level FlightAware
12:52AM 40.7010 -108.2410 253° West 473 544 34,100  Climbing FlightAware
12:53AM 40.6700 -108.3720 253° West 470 541 34,000 -120 Descending FlightAware
12:54AM 40.6460 -108.4780 253° West 467 537 34,000  Level FlightAware
12:55AM 40.6200 -108.5880 253° West 463 533 34,000  Level FlightAware
12:55AM 40.5910 -108.7100 253° West 464 534 34,000  Level FlightAware
12:56AM 40.5660 -108.8160 253° West 466 536 34,000  Level FlightAware
12:57AM 40.5390 -108.9260 252° West 469 540 34,000  Level FlightAware
12:57AM 40.5160 -109.0220 253° West 471 542 34,000 60 Level FlightAware
12:58AM 40.4860 -109.1490 253° West 470 541 34,100  Climbing FlightAware
12:59AM 40.4610 -109.2510 252° West 468 539 34,000 -120 Descending FlightAware
12:59AM 40.4300 -109.3800 253° West 469 540 34,000  Level FlightAware
01:00AM 40.4040 -109.4860 252° West 470 541 34,000  Level FlightAware
01:01AM 40.3760 -109.5980 252° West 467 537 34,000  Level FlightAware
01:01AM 40.3540 -109.6900 253° West 468 539 34,000  Level FlightAware
01:02AM 40.3270 -109.7970 252° West 469 540 34,000  Level FlightAware
01:03AM 40.2950 -109.9240 252° West 471 542 34,000  Level FlightAware
01:03AM 40.2730 -110.0150 252° West 472 543 34,000  Level FlightAware
01:04AM 40.2450 -110.1270 252° West 472 543 34,000  Level FlightAware
01:05AM 40.2160 -110.2410 252° West 471 542 34,000 120 Level FlightAware
01:05AM 40.1880 -110.3490 251° West 470 541 34,200 660 Climbing FlightAware
01:06AM 40.1580 -110.4670 252° West 466 536 35,000 1,020 Climbing FlightAware
01:07AM 40.1290 -110.5820 252° West 464 534 35,700 720 Climbing FlightAware
01:07AM 40.1040 -110.6790 251° West 464 534 36,000 180 Climbing FlightAware
01:08AM 40.0743 -110.7950 252° West 463 533 36,000  Level FlightAware ADS-B
01:09AM 40.0531 -110.8760 251° West 465 535 36,000  Level FlightAware ADS-B
01:09AM 40.0322 -110.9570 251° West 465 535 36,000  Level FlightAware ADS-B
01:10AM 40.0074 -111.0520 251° West 465 535 36,000  Level FlightAware ADS-B
01:10AM 39.9829 -111.1450 251° West 465 535 36,000  Level FlightAware ADS-B
01:11AM 39.9619 -111.2250 251° West 466 536 36,000  Level FlightAware ADS-B
01:11AM 39.9409 -111.3040 251° West 466 536 36,000  Level FlightAware ADS-B
01:12AM 39.9142 -111.4050 251° West 466 536 36,000  Level FlightAware ADS-B
01:12AM 39.8930 -111.4840 251° West 463 533 36,000  Level FlightAware ADS-B
01:13AM 39.8720 -111.5640 251° West 465 535 36,000  Level FlightAware ADS-B
01:13AM 39.8505 -111.6440 251° West 466 536 36,000  Level FlightAware ADS-B
01:14AM 39.8290 -111.7240 251° West 467 537 36,000  Level FlightAware ADS-B
01:15AM 39.8076 -111.8040 251° West 465 535 36,000  Level FlightAware ADS-B
01:15AM 39.7859 -111.8850 251° West 465 535 36,000  Level FlightAware ADS-B
01:16AM 39.7645 -111.9630 250° West 466 536 36,000  Level FlightAware ADS-B
01:16AM 39.7429 -112.0430 251° West 469 540 36,000  Level FlightAware ADS-B
01:17AM 39.7177 -112.1350 250° West 472 543 36,000  Level FlightAware ADS-B
01:17AM 39.6956 -112.2160 250° West 474 545 36,000 60 Level FlightAware ADS-B
01:18AM 39.6731 -112.2980 250° West 473 544 36,100  Climbing FlightAware ADS-B
01:18AM 39.6502 -112.3810 250° West 473 544 36,000 -120 Descending FlightAware ADS-B
01:19AM 39.6281 -112.4610 250° West 472 543 36,000  Level FlightAware ADS-B
01:19AM 39.6057 -112.5420 250° West 470 541 36,000  Level FlightAware ADS-B
01:20AM 39.5831 -112.6230 250° West 469 540 36,000  Level FlightAware ADS-B
01:20AM 39.5582 -112.7130 250° West 468 539 36,000  Level FlightAware ADS-B
01:21AM 39.5356 -112.7930 250° West 470 541 36,000  Level FlightAware ADS-B
01:21AM 39.5126 -112.8750 250° West 471 542 36,000  Level FlightAware ADS-B
01:22AM 39.4888 -112.9600 250° West 473 544 36,000  Level FlightAware ADS-B
01:22AM 39.4658 -113.0410 250° West 474 545 36,000  Level FlightAware ADS-B
01:23AM 39.4432 -113.1210 250° West 475 547 36,000  Level FlightAware ADS-B
01:23AM 39.4161 -113.2160 250° West 474 545 36,000  Level FlightAware ADS-B
01:24AM 39.3921 -113.3010 250° West 474 545 36,000  Level FlightAware ADS-B
01:24AM 39.3689 -113.3820 250° West 474 545 36,000  Level FlightAware ADS-B
01:25AM 39.3447 -113.4660 250° West 471 542 36,000  Level FlightAware ADS-B
01:26AM 39.2950 -113.6370 249° West 469 540 36,000  Level FlightAware
01:27AM 39.2630 -113.7480 250° West 468 539 36,000  Level FlightAware
01:28AM 39.2210 -113.8910 249° West 469 540 36,000  Level FlightAware
01:28AM 39.1970 -113.9730 249° West 469 540 36,000  Level FlightAware
01:29AM 39.1710 -114.0600 249° West 469 540 36,000  Level FlightAware
01:30AM 39.1400 -114.1640 249° West 469 540 36,000  Level FlightAware
01:30AM 39.1160 -114.2440 249° West 469 540 36,000  Level FlightAware
01:31AM 39.0840 -114.3510 249° West 469 540 36,000  Level FlightAware
01:32AM 39.0600 -114.4310 249° West 469 540 36,000  Level FlightAware
01:32AM 39.0370 -114.5110 250° West 469 540 36,000  Level FlightAware
01:33AM 38.9950 -114.6500 249° West 469 540 36,000  Level FlightAware
01:34AM 38.9710 -114.7300 249° West 469 540 36,000  Level FlightAware
01:35AM 38.9390 -114.8360 249° West 469 540 36,000  Level FlightAware
01:35AM 38.9160 -114.9160 250° West 469 540 36,000  Level FlightAware
01:37AM 38.8680 -115.0750 249° West 469 540 36,000  Level FlightAware
01:37AM 38.8440 -115.1550 249° West 469 540 36,000  Level FlightAware
01:38AM 38.9169 -115.5242 249° West 468 539 36,000  Level Oakland Center
01:39AM 38.8942 -115.6483 257° West 470 541 36,000  Level Salt Lake Center
01:40AM 38.8653 -115.8125 257° West 474 545 36,000  Level Salt Lake Center
01:41AM 38.8342 -115.9778 256° West 478 550 36,000  Level Salt Lake Center
01:42AM 38.8028 -116.1439 256° West 479 551 36,100  Climbing Salt Lake Center
01:43AM 38.7719 -116.3100 257° West 480 552 36,000 -60 Descending Salt Lake Center
01:44AM 38.7414 -116.4742 257° West 477 549 36,000  Level Salt Lake Center
01:45AM 38.7111 -116.6381 257° West 476 548 36,000  Level Salt Lake Center
01:46AM 38.6794 -116.7989 256° West 470 541 36,000  Level Salt Lake Center
01:47AM 38.6500 -116.9569 257° West 462 532 36,000  Level Salt Lake Center
01:53AM 38.4530 -117.9470 257° West 466 536 36,000  Level FlightAware
01:53AM 38.4320 -118.0550 256° West 465 535 36,000  Level FlightAware
01:54AM 38.4080 -118.1700 255° West 463 533 36,000  Level FlightAware
01:55AM 38.3880 -118.2650 255° West 463 533 36,000  Level FlightAware
01:55AM 38.3670 -118.3680 255° West 463 533 36,000  Level FlightAware
01:56AM 38.3460 -118.4690 255° West 463 533 36,000  Level FlightAware
01:57AM 38.3140 -118.6220 255° West 465 535 36,000  Level FlightAware
01:58AM 38.2970 -118.7030 255° West 465 535 36,000  Level FlightAware
01:58AM 38.2650 -118.8560 255° West 463 533 36,000 -240 Level FlightAware
01:59AM 38.2420 -118.9670 255° West 467 537 35,700 -780 Descending FlightAware
02:00AM 38.2190 -119.0720 254° West 481 554 35,000 -1,080 Descending FlightAware
02:00AM 38.1910 -119.2000 254° West 481 554 34,200 -1,020 Descending FlightAware
02:01AM 38.1680 -119.3070 255° West 485 558 33,600 -960 Descending FlightAware
02:02AM 38.1430 -119.4240 255° West 490 564 32,900 -1,020 Descending FlightAware
02:03AM 38.1180 -119.5380 254° West 490 564 32,200 -1,020 Descending FlightAware
02:03AM 38.0950 -119.6460 255° West 488 562 31,600 -960 Descending FlightAware
02:04AM 38.0700 -119.7560 254° West 484 557 31,000 -1,080 Descending FlightAware
02:05AM 38.0400 -119.8930 255° West 490 564 30,000 -1,200 Descending FlightAware
02:05AM 38.0160 -120.0020 254° West 492 566 29,200 -1,200 Descending FlightAware
02:06AM 37.9900 -120.1190 254° West 490 564 28,400 -1,200 Descending FlightAware
02:07AM 37.9640 -120.2320 254° West 490 564 27,600 -1,260 Descending FlightAware
02:07AM 37.9370 -120.3510 254° West 488 562 26,700 -1,140 Descending FlightAware
02:08AM 37.9120 -120.4600 254° West 479 551 26,000 -1,380 Descending FlightAware
02:09AM 37.8870 -120.5700 254° West 467 537 24,800 -1,860 Descending FlightAware
02:10AM 37.8660 -120.6860 257° West 458 527 23,400 -2,040 Descending FlightAware
02:10AM 37.8580 -120.7830 264° West 447 514 22,100 -2,280 Descending FlightAware
02:11AM 37.8500 -120.9100 265° West 430 495 20,200 -2,100 Descending FlightAware
02:12AM 37.8440 -121.0070 266° West 396 456 19,000 -1,980 Descending FlightAware
02:12AM 37.8380 -121.1010 265° West 390 449 17,500 -2,160 Descending FlightAware
02:13AM 37.8290 -121.1820 262° West 378 435 16,300 -1,980 Descending FlightAware ADS-B
02:13AM 37.8085 -121.2440 247° West 369 425 15,300 -1,980 Descending FlightAware ADS-B
02:14AM 37.7867 -121.3030 245° Southwest 364 419 14,300 -1,920 Descending FlightAware ADS-B
02:14AM 37.7660 -121.3610 246° West 352 405 13,400 -1,800 Descending FlightAware ADS-B
02:15AM 37.7468 -121.4160 246° West 327 376 12,500 -1,800 Descending FlightAware ADS-B
02:15AM 37.7282 -121.4680 246° West 327 376 11,600 -1,860 Descending FlightAware ADS-B
02:16AM 37.7105 -121.5180 246° West 318 366 10,700 -1,920 Descending FlightAware ADS-B
02:16AM 37.7055 -121.5390 253° West 310 357 10,300 -1,980 Descending FlightAware ADS-B
02:16AM 37.7010 -121.5670 259° West 305 351 9,800 -2,100 Descending FlightAware ADS-B
02:17AM 37.6968 -121.5950 259° West 301 346 9,200 -1,860 Descending FlightAware ADS-B
02:18AM 37.6827 -121.6850 259° West 300 345 7,700 -1,800 Descending FlightAware ADS-B
02:18AM 37.6787 -121.7110 259° West 298 343 7,200 -1,980 Descending FlightAware ADS-B
02:18AM 37.6749 -121.7360 259° West 293 337 6,700 -2,220 Descending FlightAware ADS-B
02:18AM 37.6710 -121.7620 259° West 294 338 6,100 -2,220 Descending FlightAware ADS-B
02:19AM 37.6669 -121.7880 259° West 291 335 5,600 -1,980 Descending FlightAware ADS-B
02:19AM 37.6629 -121.8130 259° West 287 330 5,100 -1,980 Descending FlightAware ADS-B
02:19AM 37.6591 -121.8380 259° West 282 325 4,600 -1,800 Descending FlightAware ADS-B
02:19AM 37.6553 -121.8630 259° West 275 316 4,200 -1,020 Descending FlightAware ADS-B
02:20AM 37.6516 -121.8850 258° West 258 297 4,100 -240 Descending FlightAware ADS-B
02:20AM 37.6491 -121.9020 259° West 243 280 4,100  Level FlightAware ADS-B
02:20AM 37.6458 -121.9220 258° West 233 268 4,100 -240 Level FlightAware ADS-B
02:20AM 37.6431 -121.9390 259° West 227 261 4,000 -840 Descending FlightAware ADS-B
02:20AM 37.6399 -121.9590 259° West 226 260 3,700 -1,020 Descending FlightAware ADS-B
02:21AM 37.6368 -121.9790 259° West 220 253 3,500 -420 Descending FlightAware ADS-B
02:21AM 37.6339 -121.9980 259° West 217 250 3,500 -420 Level FlightAware ADS-B
02:21AM 37.6310 -122.0170 259° West 215 247 3,300 -840 Descending FlightAware ADS-B
02:21AM 37.6282 -122.0350 259° West 207 238 3,100 -1,020 Descending FlightAware ADS-B
02:22AM 37.6256 -122.0520 259° West 206 237 2,800 -1,200 Descending FlightAware ADS-B
02:22AM 37.6227 -122.0700 259° West 206 237 2,500 -1,140 Descending FlightAware ADS-B
02:22AM 37.6214 -122.0780 258° West 204 235 2,400 -600 Descending FlightAware ADS-B
02:22AM 37.6210 -122.0830 264° West 201 231 2,400  Level FlightAware ADS-B
02:22AM 37.6211 -122.0880 271° West 197 227 2,400  Level FlightAware ADS-B
02:22AM 37.6215 -122.0910 280° West 192 221 2,400  Level FlightAware ADS-B
02:22AM 37.6222 -122.0940 286° West 188 216 2,400  Level FlightAware ADS-B
02:22AM 37.6232 -122.0970 293° West 183 211 2,400  Level FlightAware ADS-B
02:22AM 37.6246 -122.1000 301° West 180 207 2,400  Level FlightAware ADS-B
02:23AM 37.6265 -122.1030 309° West 178 205 2,400  Level FlightAware ADS-B
02:23AM 37.6300 -122.1080 311° West 175 201 2,400 -900 Level FlightAware ADS-B
02:23AM 37.6371 -122.1170 315° West 170 196 2,100 -1,320 Descending FlightAware ADS-B
02:23AM 37.6421 -122.1250 308° West 169 194 1,900 -1,500 Descending FlightAware ADS-B
02:23AM 37.6473 -122.1320 313° West 169 194 1,600 -900 Descending FlightAware ADS-B
02:23AM 37.6555 -122.1450 309° West 154 177 1,500 -780 Descending FlightAware ADS-B
02:24AM 37.6623 -122.1550 311° West 153 176 1,200 -1,200 Descending FlightAware ADS-B
02:24AM 37.6672 -122.1630 308° West 150 173 1,000 -900 Descending FlightAware ADS-B
02:24AM 37.6713 -122.1690 311° West 146 168 900 -360 Descending FlightAware ADS-B
02:24AM 37.6744 -122.1730 314° West 146 168 900 -600 Level FlightAware ADS-B
02:24AM 37.6798 -122.1820 307° West 143 165 700 -900 Descending FlightAware ADS-B
02:25AM 37.6832 -122.1870 311° West 139 160 600 -360 Descending FlightAware ADS-B
02:25AM 37.6865 -122.1920 310° West 134 154 600 -480 Level FlightAware ADS-B
02:25AM 37.6932 -122.2020 310° West 129 148 400 -720 Descending FlightAware ADS-B
02:25AM 37.6997 -122.2120 309° West 126 145 200 -600 Descending FlightAware ADS-B
02:25AM 37.7053 -122.2200 312° West 124 143 100 -420 Descending FlightAware ADS-B